createdAt,value
2019-04-07T00:02:08.629Z,45.03
2019-04-07T00:07:04.064Z,45.97
2019-04-07T00:11:59.123Z,44.37
2019-04-07T00:16:54.139Z,44.20
2019-04-07T00:21:48.764Z,47.70
2019-04-07T00:26:43.380Z,50.07
2019-04-07T00:31:38.597Z,47.30
2019-04-07T00:36:34.111Z,49.27
2019-04-07T00:41:28.785Z,51.83
2019-04-07T00:46:23.410Z,50.50
2019-04-07T00:51:17.966Z,50.27
2019-04-07T00:56:13.141Z,50.07
2019-04-07T01:01:09.126Z,49.73
2019-04-07T01:06:03.801Z,46.00
2019-04-07T01:10:58.602Z,47.43
2019-04-07T01:15:53.764Z,48.20
2019-04-07T01:20:48.624Z,51.83
2019-04-07T01:25:43.219Z,48.30
2019-04-07T01:30:37.892Z,50.60
2019-04-07T01:35:32.983Z,50.00
2019-04-07T01:40:27.829Z,52.13
2019-04-07T01:45:24.142Z,52.77
2019-04-07T01:50:26.449Z,52.57
2019-04-07T01:55:29.942Z,49.97
2019-04-07T02:00:42.916Z,50.87
2019-04-07T02:05:59.820Z,51.73
2019-04-07T02:10:51.629Z,52.43
2019-04-07T02:16:04.933Z,48.30
2019-04-07T02:21:02.137Z,52.63
2019-04-07T02:25:59.294Z,52.30
2019-04-07T02:30:56.168Z,54.53
2019-04-07T02:35:56.036Z,52.73
2019-04-07T02:40:55.872Z,55.97
2019-04-07T02:45:57.990Z,51.63
2019-04-07T02:50:54.940Z,52.03
2019-04-07T02:56:06.603Z,51.03
2019-04-07T03:01:09.650Z,56.27
2019-04-07T03:06:37.487Z,55.83
2019-04-07T03:11:32.400Z,52.30
2019-04-07T03:16:26.755Z,57.13
2019-04-07T03:21:32.967Z,58.90
2019-04-07T03:26:27.383Z,54.23
2019-04-07T03:31:27.376Z,51.77
2019-04-07T03:36:28.489Z,55.23
2019-04-07T03:41:25.722Z,52.43
2019-04-07T03:46:25.297Z,52.47
2019-04-07T03:51:37.763Z,52.77
2019-04-07T03:56:46.106Z,49.97
2019-04-07T04:01:59.167Z,50.50
2019-04-07T04:07:22.376Z,48.63
2019-04-07T04:12:15.046Z,49.47
2019-04-07T04:17:09.682Z,48.17
2019-04-07T04:22:04.261Z,48.13
2019-04-07T04:26:59.200Z,52.70
2019-04-07T04:31:54.666Z,52.83
2019-04-07T04:36:50.222Z,48.57
2019-04-07T04:41:45.041Z,55.73
2019-04-07T04:46:39.632Z,53.43
2019-04-07T04:51:37.011Z,50.20
2019-04-07T04:56:30.972Z,59.20
2019-04-07T05:01:26.466Z,56.23
2019-04-07T05:06:21.409Z,52.27
2019-04-07T05:11:15.978Z,55.53
2019-04-07T05:16:10.647Z,49.20
2019-04-07T05:21:05.280Z,47.37
2019-04-07T05:26:00.424Z,44.27
2019-04-07T05:30:55.055Z,47.13
2019-04-07T05:35:49.665Z,43.47
2019-04-07T05:40:44.850Z,47.53
2019-04-07T05:45:39.995Z,46.13
2019-04-07T05:50:34.975Z,45.97
2019-04-07T05:55:30.423Z,39.67
2019-04-07T06:00:26.005Z,44.43
2019-04-07T06:05:21.242Z,39.67
2019-04-07T06:10:16.632Z,39.33
2019-04-07T06:15:17.710Z,41.03
2019-04-07T06:20:14.250Z,41.03
2019-04-07T06:25:09.580Z,35.90
2019-04-07T06:30:08.456Z,35.70
2019-04-07T06:35:03.876Z,36.40
2019-04-07T06:39:59.244Z,32.73
2019-04-07T06:44:54.293Z,34.47
2019-04-07T06:49:53.589Z,30.53
2019-04-07T06:54:56.029Z,32.40
2019-04-07T06:59:50.463Z,30.27
2019-04-07T07:04:49.761Z,31.07
2019-04-07T07:09:57.966Z,28.90
2019-04-07T07:15:03.651Z,28.77
2019-04-07T07:20:06.800Z,25.83
2019-04-07T07:25:01.604Z,26.03
2019-04-07T07:29:56.582Z,24.87
2019-04-07T07:34:52.083Z,18.77
2019-04-07T07:39:47.518Z,19.23
2019-04-07T07:44:42.693Z,21.13
2019-04-07T07:49:40.281Z,20.60
2019-04-07T07:54:35.102Z,18.13
2019-04-07T07:59:33.534Z,16.80
2019-04-07T08:04:26.972Z,18.73
2019-04-07T08:09:25.723Z,16.87
2019-04-07T08:14:19.710Z,13.93
2019-04-07T08:19:14.635Z,12.93
2019-04-07T08:24:10.114Z,9.70
2019-04-07T08:29:06.840Z,9.80
2019-04-07T08:34:02.223Z,8.10
2019-04-07T08:38:57.182Z,8.63
2019-04-07T08:43:55.319Z,8.73
2019-04-07T08:48:51.843Z,7.60
2019-04-07T08:53:45.110Z,9.97
2019-04-07T08:58:40.143Z,9.53
2019-04-07T09:03:35.785Z,7.97
2019-04-07T09:08:30.728Z,9.40
2019-04-07T09:13:25.325Z,9.20
2019-04-07T09:18:21.557Z,7.83
2019-04-07T09:23:17.792Z,8.17
2019-04-07T09:28:21.189Z,7.87
2019-04-07T09:33:21.596Z,7.23
2019-04-07T09:38:24.955Z,9.83
2019-04-07T09:43:19.952Z,10.37
2019-04-07T09:48:21.776Z,10.00
2019-04-07T09:53:21.385Z,8.47
2019-04-07T09:58:23.960Z,8.70
2019-04-07T10:03:38.088Z,10.07
2019-04-07T10:08:37.380Z,11.30
2019-04-07T10:13:39.831Z,14.97
2019-04-07T10:18:52.275Z,16.50
2019-04-07T10:24:05.261Z,19.07
2019-04-07T10:29:01.829Z,18.97
2019-04-07T10:34:13.448Z,17.87
2019-04-07T10:39:17.530Z,16.27
2019-04-07T10:44:29.217Z,16.13
2019-04-07T10:49:26.196Z,18.60
2019-04-07T10:54:23.347Z,15.70
2019-04-07T10:59:23.879Z,17.47
2019-04-07T11:04:23.068Z,15.40
2019-04-07T11:09:17.820Z,18.73
2019-04-07T11:14:12.303Z,20.43
2019-04-07T11:19:12.983Z,19.83
2019-04-07T11:24:12.339Z,23.73
2019-04-07T11:29:17.749Z,19.83
2019-04-07T11:34:17.397Z,18.70
2019-04-07T11:39:32.696Z,23.63
2019-04-07T11:44:30.039Z,16.97
2019-04-07T11:49:31.979Z,17.80
2019-04-07T11:54:33.938Z,19.60
2019-04-07T11:59:39.658Z,17.83
2019-04-07T12:04:41.757Z,17.10
2019-04-07T12:09:39.523Z,19.63
2019-04-07T12:14:51.292Z,18.63
2019-04-07T12:19:46.305Z,17.20
2019-04-07T12:25:00.744Z,17.57
2019-04-07T12:29:58.607Z,21.03
2019-04-07T12:35:04.237Z,20.73
2019-04-07T12:40:03.257Z,16.40
2019-04-07T12:45:10.061Z,17.93
2019-04-07T12:50:15.514Z,20.20
2019-04-07T12:55:11.962Z,19.10
2019-04-07T13:00:25.172Z,19.17
2019-04-07T13:05:30.440Z,20.10
2019-04-07T13:10:30.242Z,17.43
2019-04-07T13:15:45.482Z,17.67
2019-04-07T13:20:55.343Z,15.53
2019-04-07T13:25:55.007Z,17.17
2019-04-07T13:30:50.398Z,18.17
2019-04-07T13:35:46.612Z,16.33
2019-04-07T13:40:59.506Z,14.73
2019-04-07T13:46:19.992Z,14.67
2019-04-07T13:51:26.880Z,12.70
2019-04-07T13:56:27.181Z,13.33
2019-04-07T14:01:23.429Z,13.23
2019-04-07T14:06:36.239Z,13.00
2019-04-07T14:11:32.790Z,13.80
2019-04-07T14:16:46.416Z,11.50
2019-04-07T14:21:47.305Z,15.50
2019-04-07T14:26:48.956Z,13.00
2019-04-07T14:31:54.082Z,14.73
2019-04-07T14:37:05.380Z,15.03
2019-04-07T14:42:06.713Z,13.93
2019-04-07T14:47:16.755Z,14.80
2019-04-07T14:52:19.866Z,13.07
2019-04-07T14:57:16.968Z,13.33
2019-04-07T15:02:12.783Z,12.63
2019-04-07T15:07:12.058Z,11.53
2019-04-07T15:12:17.091Z,13.17
2019-04-07T15:17:05.782Z,12.43
2019-04-07T15:22:02.315Z,10.83
2019-04-07T15:26:57.780Z,12.97
2019-04-07T15:31:53.166Z,11.97
2019-04-07T15:36:49.720Z,13.07
2019-04-07T15:41:45.480Z,10.17
2019-04-07T15:46:41.505Z,11.30
2019-04-07T15:51:36.257Z,10.17
2019-04-07T15:56:31.458Z,10.50
2019-04-07T16:01:26.902Z,11.13
2019-04-07T16:06:21.888Z,13.63
2019-04-07T16:11:17.652Z,10.23
2019-04-07T16:16:13.445Z,10.00
2019-04-07T16:21:09.482Z,9.67
2019-04-07T16:26:04.860Z,11.47
2019-04-07T16:30:59.643Z,10.00
2019-04-07T16:35:56.322Z,12.17
2019-04-07T16:40:50.817Z,8.83
2019-04-07T16:45:46.290Z,10.77
2019-04-07T16:50:41.932Z,10.43
2019-04-07T16:55:41.579Z,9.80
2019-04-07T17:00:36.538Z,9.37
2019-04-07T17:05:32.206Z,9.87
2019-04-07T17:10:32.351Z,10.07
2019-04-07T17:15:23.767Z,9.63
2019-04-07T17:20:18.967Z,8.97
2019-04-07T17:25:15.087Z,8.80
2019-04-07T17:30:23.644Z,10.23
2019-04-07T17:35:18.920Z,9.93
2019-04-07T17:40:17.184Z,9.30
2019-04-07T17:45:29.733Z,9.23
2019-04-07T17:50:42.334Z,9.37
2019-04-07T17:55:36.851Z,8.07
2019-04-07T18:00:50.665Z,9.50
2019-04-07T18:05:45.652Z,8.93
2019-04-07T18:10:50.717Z,7.67
2019-04-07T18:15:54.366Z,6.10
2019-04-07T18:20:57.137Z,9.50
2019-04-07T18:26:10.617Z,8.13
2019-04-07T18:31:22.627Z,9.00
2019-04-07T18:36:37.759Z,8.83
2019-04-07T18:41:50.533Z,8.33
2019-04-07T18:46:50.132Z,8.13
2019-04-07T18:51:51.840Z,7.63
2019-04-07T18:56:49.558Z,7.07
2019-04-07T19:01:52.237Z,7.77
2019-04-07T19:07:02.205Z,8.30
2019-04-07T19:12:07.969Z,5.97
2019-04-07T19:17:17.178Z,5.60
2019-04-07T19:22:26.700Z,5.80
2019-04-07T19:27:39.013Z,5.87
2019-04-07T19:32:33.408Z,8.10
2019-04-07T19:37:32.544Z,7.43
2019-04-07T19:42:31.832Z,9.60
2019-04-07T19:47:32.845Z,7.50
2019-04-07T19:52:42.911Z,7.50
2019-04-07T19:57:42.726Z,7.43
2019-04-07T20:02:44.815Z,7.03
2019-04-07T20:08:08.190Z,4.97
2019-04-07T20:13:16.361Z,7.13
2019-04-07T20:18:16.665Z,5.43
2019-04-07T20:23:19.780Z,5.50
2019-04-07T20:28:30.253Z,5.23
2019-04-07T20:33:23.517Z,5.70
2019-04-07T20:38:25.521Z,4.27
2019-04-07T20:43:21.735Z,5.90
2019-04-07T20:48:17.526Z,5.87
2019-04-07T20:53:23.204Z,4.17
2019-04-07T20:58:43.754Z,5.60
2019-04-07T21:03:27.957Z,5.07
2019-04-07T21:08:30.217Z,5.13
2019-04-07T21:13:25.638Z,5.53
2019-04-07T21:18:34.940Z,5.67
2019-04-07T21:23:31.621Z,6.20
2019-04-07T21:28:43.919Z,4.93
2019-04-07T21:33:41.305Z,7.80
2019-04-07T21:38:45.402Z,5.87
2019-04-07T21:43:42.678Z,6.67
2019-04-07T21:48:39.185Z,4.77
2019-04-07T21:53:35.486Z,7.17
2019-04-07T21:58:48.630Z,5.90
2019-04-07T22:04:00.947Z,6.57
2019-04-07T22:09:00.301Z,5.77
2019-04-07T22:13:55.407Z,5.63
2019-04-07T22:18:51.204Z,7.90
2019-04-07T22:23:46.431Z,6.53
2019-04-07T22:28:41.571Z,5.60
2019-04-07T22:33:36.861Z,5.47
2019-04-07T22:38:31.771Z,5.23
2019-04-07T22:43:26.510Z,5.17
2019-04-07T22:48:25.289Z,4.80
2019-04-07T22:53:21.299Z,5.10
2019-04-07T22:58:13.940Z,6.23
2019-04-07T23:03:08.689Z,4.33
2019-04-07T23:08:04.041Z,6.33
2019-04-07T23:12:59.406Z,3.90
2019-04-07T23:17:54.361Z,3.97
2019-04-07T23:22:49.943Z,4.17
2019-04-07T23:27:45.585Z,5.27
2019-04-07T23:32:41.421Z,4.67
2019-04-07T23:37:36.957Z,4.20
2019-04-07T23:42:32.670Z,6.03
2019-04-07T23:47:27.350Z,4.83
2019-04-07T23:52:22.939Z,5.33
2019-04-07T23:57:17.811Z,7.17
